Port Charlotte, Florida
Current Conditions -  °F | °C
As of 8:53 PM on Tuesday 21 Oct 2014 (Local Time) from KPGD Reporting Station
Clear Clear  
Wind Chill: 75°   Ceiling: Unl
Heat Index: 75°   Visibility: 10mi
Dew Point: 71°   Wind: 3mph
Humidity: 87%   Direction: 140°SE
Pressure: 29.96"   Gusts: NA
Location:  26.98°N, 82.1°W
Report Text: KPGD 220053Z AUTO 14003KT 10SM CLR 24/22 A2996 RMK AO2 SLP145 T02390217
Loading
Personal Weather Stations






























Interactive Weather Map
Tropical Storm Tracking
New forecast layout! Learn more

10-Day Weather Forecast

Advertisements
Track Severe Weather on mobile